Millville Municipal Airport
KMIV : now visible

Airfield :











YOU CAN JOIN US ON...

 
LOGIN :

Register | Disclaimer

   EN    FR    IT 

 









Legend :    VFR   Marginal VFR   IFR   Intensive IFR   Very Intensive IFR
Visi :
Ceiling :
>= 8 km
>= 3000ft
5 to 8 km
1000 to 3000 ft
1500m to 5 km
500 to 1000 ft
800 to 1500m
200 to 500 ft
< 800m
< 200 ft
Symbols :   Thunderstorms  Fog  Heavy snow  Heavy precipitations  Wind > 20 kt






- Airport Elevation : 85 ft


KMIV - Millville Municipal

CURRENT METAR :
  • 252354Z AUTO 00000KT 10SM CLR 20/16 A3015 RMK AO2 SLP208 T02000156 10228 20194 55007

EXPIRED METARs :
  • 252254Z AUTO 14004KT 10SM SCT026 22/16 A3014 RMK AO2 SLP205 T02220156
  • 252217Z AUTO 00000KT 10SM BKN030 22/15 A3015 RMK AO2 T02170150
  • 252154Z AUTO 00000KT 10SM OVC027 22/15 A3015 RMK AO2 SLP209 T02220150

TAF KMIV
Valid from the 26 at 00:00 until the 27 at 00:00 UTC


252323Z 2600/2624 VRB04KT P6SM SCT025
TEMPO 2601/2603 BKN008
FM260300 00000KT 3SM BR BKN008
FM260500 00000KT 1SM BR BKN005
FM261400 VRB04KT 6SM BR BKN010
FM261600 16007KT P6SM SCT010
KZDC FIR / North America



MET'MAP, your aeronautical weather chart ! - Copyright ORBIFLY December 2007 - Disclaimer

ORBIFLY MET'MAP TEAM :

Programming & Development : Alexandra Zaïnal
Concept & original design : Baudouin d'Aumeries
Assistance for programming : Marc-Olivier Méhu
Technical & hardware support : Manuel Goepfert

Contact : metmap@orbifly.com




SOURCES & CREDITS :

   NOAA       Earth
Advisory